createdAt,value
2023-05-20T00:01:53.701Z,99.90
2023-05-20T00:06:15.735Z,99.90
2023-05-20T00:10:38.096Z,99.90
2023-05-20T00:15:00.416Z,99.90
2023-05-20T00:19:22.500Z,99.90
2023-05-20T00:23:44.636Z,99.90
2023-05-20T00:28:07.388Z,99.90
2023-05-20T00:32:29.652Z,99.90
2023-05-20T00:36:52.396Z,99.90
2023-05-20T00:41:14.573Z,99.90
2023-05-20T00:45:38.443Z,99.90
2023-05-20T00:50:01.397Z,99.90
2023-05-20T00:54:23.861Z,99.90
2023-05-20T00:58:46.452Z,99.90
2023-05-20T01:03:09.040Z,99.90
2023-05-20T01:07:32.132Z,99.90
2023-05-20T01:12:05.770Z,99.90
2023-05-20T01:16:29.427Z,99.90
2023-05-20T01:20:56.070Z,99.90
2023-05-20T01:25:18.149Z,99.90
2023-05-20T01:29:43.135Z,99.90
2023-05-20T01:34:06.654Z,99.90
2023-05-20T01:38:29.005Z,99.90
2023-05-20T01:42:55.347Z,99.90
2023-05-20T01:47:17.567Z,99.90
2023-05-20T01:51:39.466Z,99.90
2023-05-20T01:56:01.771Z,99.90
2023-05-20T02:00:24.111Z,99.90
2023-05-20T02:04:49.207Z,99.90
2023-05-20T02:09:11.786Z,99.90
2023-05-20T02:13:34.125Z,99.90
2023-05-20T02:17:58.383Z,99.90
2023-05-20T02:22:20.908Z,99.90
2023-05-20T02:26:44.592Z,99.90
2023-05-20T02:31:06.978Z,99.90
2023-05-20T02:35:29.354Z,99.90
2023-05-20T02:39:51.461Z,99.90
2023-05-20T02:44:14.113Z,99.90
2023-05-20T02:48:36.494Z,99.90
2023-05-20T02:52:59.176Z,99.90
2023-05-20T02:57:21.517Z,99.90
2023-05-20T03:01:43.492Z,99.90
2023-05-20T03:06:05.755Z,99.90
2023-05-20T03:10:27.831Z,99.90
2023-05-20T03:14:50.709Z,99.90
2023-05-20T03:19:12.706Z,99.90
2023-05-20T03:23:35.719Z,99.90
2023-05-20T03:28:01.152Z,99.90
2023-05-20T03:32:23.898Z,99.90
2023-05-20T03:36:46.507Z,99.90
2023-05-20T03:41:08.809Z,99.90
2023-05-20T03:45:31.329Z,99.90
2023-05-20T03:50:00.394Z,99.90
2023-05-20T03:54:22.908Z,99.90
2023-05-20T03:58:47.967Z,99.90
2023-05-20T04:03:10.782Z,99.90
2023-05-20T04:07:33.034Z,99.90
2023-05-20T04:11:55.230Z,99.90
2023-05-20T04:16:17.308Z,99.90
2023-05-20T04:20:41.567Z,99.90
2023-05-20T04:25:05.507Z,99.90
2023-05-20T04:29:28.708Z,99.90
2023-05-20T04:33:52.246Z,99.90
2023-05-20T04:38:14.290Z,99.90
2023-05-20T04:42:38.046Z,99.90
2023-05-20T04:47:00.629Z,99.90
2023-05-20T04:51:22.687Z,99.90
2023-05-20T04:55:47.643Z,99.90
2023-05-20T05:00:12.680Z,99.90
2023-05-20T05:04:35.640Z,99.90
2023-05-20T05:08:58.051Z,99.90
2023-05-20T05:13:21.637Z,99.90
2023-05-20T05:17:44.377Z,99.90
2023-05-20T05:22:07.556Z,99.90
2023-05-20T05:26:31.150Z,99.90
2023-05-20T05:30:56.703Z,99.90
2023-05-20T05:35:18.724Z,99.90
2023-05-20T05:39:40.990Z,99.90
2023-05-20T05:44:05.011Z,99.90
2023-05-20T05:48:27.579Z,99.90
2023-05-20T05:52:49.733Z,99.90
2023-05-20T05:57:12.314Z,99.90
2023-05-20T06:01:35.315Z,99.90
2023-05-20T06:05:57.672Z,99.90
2023-05-20T06:10:20.376Z,99.90
2023-05-20T06:14:42.441Z,99.90
2023-05-20T06:19:05.774Z,99.90
2023-05-20T06:23:27.706Z,99.90
2023-05-20T06:27:53.868Z,99.90
2023-05-20T06:32:17.254Z,99.90
2023-05-20T06:36:40.828Z,99.90
2023-05-20T06:41:04.229Z,99.90
2023-05-20T06:45:27.628Z,99.90
2023-05-20T06:49:52.448Z,99.90
2023-05-20T06:54:14.633Z,99.90
2023-05-20T06:58:37.797Z,99.90
2023-05-20T07:02:59.979Z,99.90
2023-05-20T07:07:22.340Z,99.90
2023-05-20T07:11:44.738Z,99.90
2023-05-20T07:16:07.112Z,99.90
2023-05-20T07:20:31.194Z,99.90
2023-05-20T07:25:00.480Z,99.90
2023-05-20T07:29:22.775Z,99.90
2023-05-20T07:33:45.834Z,99.90
2023-05-20T07:38:08.220Z,99.90
2023-05-20T07:42:30.595Z,99.90
2023-05-20T07:46:56.237Z,99.90
2023-05-20T07:51:19.214Z,99.10
2023-05-20T07:55:41.636Z,97.80
2023-05-20T08:00:04.356Z,96.90
2023-05-20T08:04:27.906Z,96.20
2023-05-20T08:08:54.560Z,95.10
2023-05-20T08:13:22.138Z,94.70
2023-05-20T08:17:44.358Z,93.50
2023-05-20T08:22:07.716Z,92.20
2023-05-20T08:26:30.355Z,90.00
2023-05-20T08:30:52.594Z,91.50
2023-05-20T08:35:14.655Z,93.90
2023-05-20T08:39:38.015Z,91.70
2023-05-20T08:44:02.841Z,91.60
2023-05-20T08:48:28.167Z,91.00
2023-05-20T08:52:50.559Z,91.40
2023-05-20T08:57:14.317Z,90.70
2023-05-20T09:01:45.772Z,91.40
2023-05-20T09:06:09.484Z,92.20
2023-05-20T09:10:31.679Z,90.30
2023-05-20T09:14:53.990Z,87.70
2023-05-20T09:19:16.686Z,86.30
2023-05-20T09:23:39.158Z,86.60
2023-05-20T09:28:02.246Z,85.00
2023-05-20T09:32:26.716Z,86.10
2023-05-20T09:36:51.417Z,84.70
2023-05-20T09:41:15.548Z,87.20
2023-05-20T09:45:39.046Z,87.10
2023-05-20T09:50:03.655Z,91.00
2023-05-20T09:54:27.124Z,91.90
2023-05-20T09:58:51.441Z,92.80
2023-05-20T10:03:14.336Z,92.30
2023-05-20T10:07:48.479Z,93.60
2023-05-20T10:12:28.783Z,93.50
2023-05-20T10:17:10.181Z,91.80
2023-05-20T10:21:33.146Z,91.30
2023-05-20T10:25:59.237Z,91.80
2023-05-20T10:30:22.696Z,89.70
2023-05-20T10:34:50.793Z,90.30
2023-05-20T10:39:19.207Z,91.40
2023-05-20T10:43:41.516Z,90.50
2023-05-20T10:48:04.092Z,91.10
2023-05-20T10:52:26.635Z,90.00
2023-05-20T10:56:54.324Z,90.90
2023-05-20T11:01:19.323Z,92.50
2023-05-20T11:05:41.786Z,93.10
2023-05-20T11:10:10.265Z,94.80
2023-05-20T11:14:32.699Z,96.90
2023-05-20T11:18:54.754Z,98.40
2023-05-20T11:23:17.019Z,99.50
2023-05-20T11:27:42.059Z,99.90
2023-05-20T11:32:04.564Z,99.90
2023-05-20T11:36:28.955Z,99.90
2023-05-20T11:40:56.503Z,99.90
2023-05-20T11:45:19.297Z,99.90
2023-05-20T11:49:41.724Z,99.90
2023-05-20T11:54:05.997Z,99.90
2023-05-20T11:58:31.537Z,99.90
2023-05-20T12:02:53.872Z,99.90
2023-05-20T12:07:15.940Z,99.90
2023-05-20T12:11:41.588Z,99.90
2023-05-20T12:16:06.207Z,99.90
2023-05-20T12:20:29.179Z,99.90
2023-05-20T12:24:53.594Z,99.90
2023-05-20T12:29:16.773Z,99.90
2023-05-20T12:33:39.244Z,99.90
2023-05-20T12:38:01.994Z,99.90
2023-05-20T12:42:23.856Z,99.90
2023-05-20T12:46:46.265Z,99.90
2023-05-20T12:51:08.218Z,99.90
2023-05-20T12:55:33.292Z,99.90
2023-05-20T12:59:56.033Z,99.90
2023-05-20T13:04:18.239Z,99.90
2023-05-20T13:08:40.458Z,99.90
2023-05-20T13:13:02.947Z,99.90
2023-05-20T13:17:25.521Z,99.90
2023-05-20T13:21:48.823Z,99.90
2023-05-20T13:26:11.236Z,99.90
2023-05-20T13:30:33.736Z,99.90
2023-05-20T13:34:57.264Z,99.90
2023-05-20T13:39:19.376Z,99.90
2023-05-20T13:43:42.430Z,99.90
2023-05-20T13:48:04.592Z,99.90
2023-05-20T13:52:26.837Z,99.90
2023-05-20T13:56:49.216Z,99.90
2023-05-20T14:01:12.774Z,99.90
2023-05-20T14:05:35.389Z,99.90
2023-05-20T14:09:57.452Z,99.90
2023-05-20T14:14:19.722Z,99.90
2023-05-20T14:18:42.192Z,99.90
2023-05-20T14:23:04.755Z,99.90
2023-05-20T14:27:27.017Z,99.90
2023-05-20T14:31:48.935Z,99.90
2023-05-20T14:36:11.757Z,99.90
2023-05-20T14:40:34.122Z,99.90
2023-05-20T14:44:56.358Z,99.90
2023-05-20T14:49:18.402Z,99.90
2023-05-20T14:53:40.524Z,99.90
2023-05-20T14:58:02.656Z,99.90
2023-05-20T15:02:24.711Z,99.90
2023-05-20T15:06:47.415Z,99.90
2023-05-20T15:11:09.605Z,99.90
2023-05-20T15:15:32.120Z,99.90
2023-05-20T15:19:54.295Z,99.90
2023-05-20T15:24:16.806Z,99.90
2023-05-20T15:28:40.224Z,99.90
2023-05-20T15:33:03.158Z,99.90
2023-05-20T15:37:25.423Z,99.90
2023-05-20T15:41:50.175Z,99.90
2023-05-20T15:46:12.669Z,99.90
2023-05-20T15:50:37.317Z,99.90
2023-05-20T15:54:59.824Z,99.90
2023-05-20T15:59:22.267Z,99.90
2023-05-20T16:03:47.487Z,99.90
2023-05-20T16:08:09.479Z,99.90
2023-05-20T16:12:32.148Z,99.90
2023-05-20T16:16:54.442Z,99.90
2023-05-20T16:21:16.712Z,99.90
2023-05-20T16:25:39.036Z,99.90
2023-05-20T16:30:01.181Z,99.90
2023-05-20T16:34:23.421Z,99.90
2023-05-20T16:38:45.738Z,99.90
2023-05-20T16:43:32.782Z,99.90
2023-05-20T16:47:56.903Z,99.90
2023-05-20T16:52:19.439Z,99.90
2023-05-20T16:56:42.977Z,99.90
2023-05-20T17:01:05.290Z,99.90
2023-05-20T17:05:27.626Z,99.90
2023-05-20T17:09:49.967Z,99.90
2023-05-20T17:14:11.986Z,99.90
2023-05-20T17:18:34.179Z,99.90
2023-05-20T17:22:56.622Z,99.90
2023-05-20T17:27:18.843Z,99.90
2023-05-20T17:31:41.419Z,99.90
2023-05-20T17:36:04.145Z,99.90
2023-05-20T17:40:26.379Z,99.90
2023-05-20T17:44:48.595Z,99.90
2023-05-20T17:49:10.595Z,99.90
2023-05-20T17:53:32.735Z,99.90
2023-05-20T17:57:55.340Z,99.90
2023-05-20T18:02:17.447Z,99.90
2023-05-20T18:06:39.399Z,99.90
2023-05-20T18:11:01.700Z,99.90
2023-05-20T18:15:23.789Z,99.90
2023-05-20T18:19:45.941Z,99.90
2023-05-20T18:24:08.226Z,99.90
2023-05-20T18:28:30.400Z,99.90
2023-05-20T18:32:53.415Z,99.90
2023-05-20T18:37:15.897Z,99.90
2023-05-20T18:41:46.714Z,99.90
2023-05-20T18:46:09.366Z,99.90
2023-05-20T18:50:32.156Z,99.90
2023-05-20T18:54:54.197Z,99.90
2023-05-20T18:59:16.200Z,99.90
2023-05-20T19:03:38.161Z,99.90
2023-05-20T19:08:01.261Z,99.90
2023-05-20T19:12:23.494Z,99.90
2023-05-20T19:16:46.102Z,99.90
2023-05-20T19:21:08.392Z,99.90
2023-05-20T19:25:30.758Z,99.90
2023-05-20T19:29:52.854Z,99.90
2023-05-20T19:34:16.511Z,99.90
2023-05-20T19:38:39.058Z,99.90
2023-05-20T19:43:01.153Z,99.90
2023-05-20T19:47:23.088Z,99.90
2023-05-20T19:51:45.237Z,99.90
2023-05-20T19:56:08.143Z,99.90
2023-05-20T20:00:30.298Z,99.90
2023-05-20T20:04:52.361Z,99.90
2023-05-20T20:09:14.576Z,99.90
2023-05-20T20:13:36.603Z,99.90
2023-05-20T20:17:59.477Z,99.90
2023-05-20T20:22:21.846Z,99.90
2023-05-20T20:26:44.257Z,99.90
2023-05-20T20:31:06.401Z,99.90
2023-05-20T20:35:28.414Z,99.90
2023-05-20T20:39:50.538Z,99.90
2023-05-20T20:44:19.132Z,99.90
2023-05-20T20:48:46.018Z,99.90
2023-05-20T20:53:08.196Z,99.90
2023-05-20T20:57:32.214Z,99.90
2023-05-20T21:01:55.133Z,99.90
2023-05-20T21:06:17.476Z,99.90
2023-05-20T21:10:39.729Z,99.90
2023-05-20T21:15:02.143Z,99.90
2023-05-20T21:19:25.014Z,99.90
2023-05-20T21:23:48.157Z,99.90
2023-05-20T21:28:10.671Z,99.90
2023-05-20T21:32:33.786Z,99.90
2023-05-20T21:36:57.338Z,99.90
2023-05-20T21:41:19.223Z,99.90
2023-05-20T21:45:41.515Z,99.90
2023-05-20T21:50:04.254Z,99.90
2023-05-20T21:54:26.134Z,99.90
2023-05-20T21:58:48.033Z,99.90
2023-05-20T22:03:10.428Z,99.90
2023-05-20T22:07:33.314Z,99.90
2023-05-20T22:11:56.356Z,99.90
2023-05-20T22:16:18.946Z,99.90
2023-05-20T22:20:41.101Z,99.90
2023-05-20T22:25:03.776Z,99.90
2023-05-20T22:29:25.721Z,99.90
2023-05-20T22:33:47.958Z,99.90
2023-05-20T22:38:09.838Z,99.90
2023-05-20T22:42:32.016Z,99.90
2023-05-20T22:46:54.530Z,99.90
2023-05-20T22:51:16.725Z,99.90
2023-05-20T22:55:38.956Z,99.90
2023-05-20T23:00:01.184Z,99.90
2023-05-20T23:04:23.420Z,99.90
2023-05-20T23:08:45.753Z,99.90
2023-05-20T23:13:07.806Z,99.90
2023-05-20T23:17:29.964Z,99.90
2023-05-20T23:21:52.128Z,99.90
2023-05-20T23:26:14.551Z,99.90
2023-05-20T23:30:36.887Z,99.90
2023-05-20T23:35:02.838Z,99.90
2023-05-20T23:39:24.859Z,99.90
2023-05-20T23:43:46.817Z,99.90
2023-05-20T23:48:13.753Z,99.90
2023-05-20T23:52:36.106Z,99.90
2023-05-20T23:56:58.078Z,99.90
